Time;durP1;ratioP1;P1;durP2;ratioP2;P2;SDS_P1;SDS_P2;PMS_P1;PMS_P2;Temp;Humidity;BMP_temperature;BMP_pressure;BME280_temperature;BME280_humidity;BME280_pressure;Samples;Min_cycle;Max_cycle;Signal;HPM_P1;HPM_P2
2022/01/03 00:01:21;;;;;;;4.50;1.63;;;8.90;96.30;;;;;;4953913;29;20880;-78
2022/01/03 00:03:47;;;;;;;2.93;1.30;;;8.90;96.30;;;;;;4936196;29;20477;-76
2022/01/03 00:06:14;;;;;;;1.93;1.20;;;9.00;96.30;;;;;;4953702;29;20407;-75
2022/01/03 00:08:43;;;;;;;3.20;1.70;;;9.00;96.30;;;;;;4936516;29;20415;-76
2022/01/03 00:11:12;;;;;;;2.70;1.47;;;9.00;96.30;;;;;;4953715;29;20446;-75
2022/01/03 00:13:42;;;;;;;3.77;1.43;;;9.00;96.30;;;;;;4953444;29;20434;-77
2022/01/03 00:16:08;;;;;;;4.67;1.87;;;9.00;96.30;;;;;;4953703;29;20433;-76
2022/01/03 00:18:33;;;;;;;4.33;1.30;;;9.20;96.30;;;;;;4936392;29;20808;-77
2022/01/03 00:21:00;;;;;;;3.83;1.47;;;9.10;96.30;;;;;;4953664;29;20787;-76
2022/01/03 00:23:28;;;;;;;3.70;1.40;;;9.10;96.30;;;;;;4953280;29;20226;-76
2022/01/03 00:26:01;;;;;;;5.63;1.50;;;9.00;96.30;;;;;;4953558;29;20517;-77
2022/01/03 00:28:35;;;;;;;8.37;1.43;;;9.10;96.30;;;;;;4953505;29;20494;-77
2022/01/03 00:31:03;;;;;;;2.90;1.23;;;9.20;96.30;;;;;;4937147;29;20446;-77
2022/01/03 00:33:28;;;;;;;2.73;1.27;;;9.30;96.30;;;;;;4956711;29;20434;-76
2022/01/03 00:36:00;;;;;;;3.70;1.40;;;9.20;96.30;;;;;;4943901;29;20428;-78
2022/01/03 00:38:28;;;;;;;4.17;1.30;;;9.10;96.30;;;;;;4937762;29;20187;-78
2022/01/03 00:40:54;;;;;;;6.00;1.60;;;9.10;96.30;;;;;;4920865;29;20968;-78
2022/01/03 00:43:20;;;;;;;6.20;1.30;;;9.20;96.30;;;;;;4937560;29;20545;-78
2022/01/03 00:45:45;;;;;;;3.93;1.37;;;9.20;96.30;;;;;;4937801;29;20575;-78
2022/01/03 00:48:12;;;;;;;3.07;1.10;;;9.20;96.30;;;;;;4937687;29;20411;-78
2022/01/03 00:50:39;;;;;;;1.83;1.37;;;9.20;96.30;;;;;;4937721;29;20681;-76
2022/01/03 00:53:05;;;;;;;2.77;1.23;;;9.10;96.30;;;;;;4920485;29;20454;-76
2022/01/03 00:55:31;;;;;;;4.40;1.33;;;9.10;96.30;;;;;;4937417;29;20439;-76
2022/01/03 00:58:07;;;;;;;6.23;1.50;;;9.20;96.30;;;;;;4937466;29;20526;-76
2022/01/03 05:01:23;;;;;;;1.53;0.77;;;6.60;96.30;;;;;;5488304;23;20509;-80
2022/01/03 05:03:49;;;;;;;2.63;0.77;;;6.60;96.30;;;;;;4938996;29;20450;-80
2022/01/03 05:06:16;;;;;;;1.93;0.70;;;6.60;96.30;;;;;;4956880;29;20718;-80
2022/01/03 05:08:42;;;;;;;3.63;0.73;;;6.60;96.30;;;;;;4939673;29;20485;-80
2022/01/03 05:11:07;;;;;;;4.77;0.90;;;6.60;96.30;;;;;;4939497;29;20525;-80
2022/01/03 05:13:33;;;;;;;7.13;0.70;;;6.70;96.30;;;;;;4939225;29;20664;-79
2022/01/03 05:16:00;;;;;;;6.87;1.20;;;6.70;96.30;;;;;;4960454;29;20175;-77
2022/01/03 05:18:26;;;;;;;2.33;0.90;;;6.70;96.30;;;;;;4939058;29;20654;-79
2022/01/03 05:28:37;;;;;;;6.40;1.00;;;6.70;96.30;;;;;;5649793;23;20482;-79
2022/01/03 05:31:03;;;;;;;2.10;0.90;;;6.70;96.30;;;;;;4956190;28;20461;-78
2022/01/03 05:33:29;;;;;;;5.13;1.10;;;6.70;96.30;;;;;;4938381;29;20643;-79
2022/01/03 05:35:54;;;;;;;1.67;0.80;;;6.70;96.30;;;;;;4956179;29;20257;-78
2022/01/03 05:38:19;;;;;;;2.80;0.83;;;6.80;96.30;;;;;;4956227;29;20194;-80
2022/01/03 05:40:45;;;;;;;2.13;0.60;;;6.80;96.30;;;;;;4956108;29;20253;-79
2022/01/03 05:43:11;;;;;;;3.93;0.80;;;6.80;96.30;;;;;;4955555;29;20214;-79
2022/01/03 05:45:37;;;;;;;1.77;1.03;;;6.70;96.30;;;;;;4956086;29;20175;-79
2022/01/03 05:48:03;;;;;;;6.93;1.10;;;6.70;96.30;;;;;;4938735;29;20268;-79
2022/01/03 05:50:28;;;;;;;3.67;0.93;;;6.70;96.30;;;;;;4938723;29;20529;-78
2022/01/03 05:52:54;;;;;;;2.60;0.70;;;6.70;96.30;;;;;;4955950;29;20563;-78
2022/01/03 05:55:20;;;;;;;3.57;1.00;;;6.70;96.30;;;;;;4926394;29;20195;-79
2022/01/03 05:57:46;;;;;;;2.43;0.77;;;6.70;96.30;;;;;;4919972;29;20179;-80
2022/01/03 06:00:15;;;;;;;2.13;0.90;;;6.80;96.30;;;;;;4920454;29;20482;-80
2022/01/03 06:02:42;;;;;;;3.20;0.70;;;6.70;96.30;;;;;;4937198;29;20223;-80
2022/01/03 06:05:17;;;;;;;2.47;0.80;;;6.60;96.30;;;;;;4936968;29;20424;-80
2022/01/03 06:07:43;;;;;;;1.90;0.80;;;6.40;96.30;;;;;;4927149;29;20422;-80
2022/01/03 06:10:13;;;;;;;5.03;0.80;;;6.30;96.30;;;;;;4928478;29;20419;-80
2022/01/03 06:12:39;;;;;;;2.00;0.90;;;6.30;96.30;;;;;;4919884;29;20188;-79
2022/01/03 06:15:05;;;;;;;6.13;0.90;;;6.20;96.30;;;;;;4919530;29;20436;-79
2022/01/03 06:17:30;;;;;;;4.67;1.20;;;6.40;96.30;;;;;;4936941;29;20186;-80
2022/01/03 06:19:56;;;;;;;2.40;0.80;;;6.40;96.30;;;;;;4919828;29;20327;-80
2022/01/03 06:22:21;;;;;;;3.00;1.10;;;6.40;96.30;;;;;;4920039;29;20207;-79
2022/01/03 06:24:47;;;;;;;5.17;0.93;;;6.40;96.30;;;;;;4919087;29;20279;-79
2022/01/03 06:27:13;;;;;;;1.93;0.73;;;6.50;96.30;;;;;;4936735;29;20628;-79
2022/01/03 06:29:39;;;;;;;3.37;0.80;;;6.40;96.30;;;;;;4922376;29;20257;-80
2022/01/03 06:32:04;;;;;;;4.07;0.80;;;6.30;96.30;;;;;;4955786;29;20459;-78
2022/01/03 06:34:30;;;;;;;3.93;1.23;;;6.10;96.30;;;;;;4934495;29;20174;-79
2022/01/03 06:36:55;;;;;;;4.63;1.10;;;6.10;96.30;;;;;;4946946;29;20218;-79
2022/01/03 06:39:21;;;;;;;4.20;0.90;;;5.90;96.30;;;;;;4955168;29;20179;-79
2022/01/03 06:41:46;;;;;;;4.80;1.10;;;5.90;96.30;;;;;;4955523;29;20187;-78
2022/01/03 06:44:12;;;;;;;5.83;1.63;;;5.90;96.30;;;;;;4937661;29;20238;-79
2022/01/03 06:46:38;;;;;;;2.47;0.70;;;5.80;96.30;;;;;;4938212;29;20175;-80
2022/01/03 06:49:06;;;;;;;5.40;1.23;;;5.80;96.30;;;;;;4955369;29;20202;-79
2022/01/03 06:51:34;;;;;;;2.63;0.83;;;5.80;96.30;;;;;;4937745;29;20195;-78
2022/01/03 06:54:02;;;;;;;4.03;0.93;;;5.80;96.30;;;;;;4954572;29;20415;-77
2022/01/03 06:56:27;;;;;;;3.57;1.00;;;5.90;96.30;;;;;;4937476;29;20426;-78
2022/01/03 06:58:53;;;;;;;5.13;1.27;;;5.90;96.30;;;;;;4954675;29;20415;-77
2022/01/03 07:01:18;;;;;;;4.40;1.10;;;5.90;96.30;;;;;;4937455;29;20671;-78
2022/01/03 07:03:44;;;;;;;2.50;0.80;;;5.90;96.30;;;;;;4954307;29;20226;-77
2022/01/03 07:06:09;;;;;;;3.27;0.80;;;5.90;96.30;;;;;;4937421;29;20230;-78
2022/01/03 07:08:35;;;;;;;4.57;2.03;;;5.90;96.30;;;;;;4937266;29;20183;-77
2022/01/03 07:11:00;;;;;;;3.90;1.10;;;5.90;96.30;;;;;;4954413;29;20195;-78
2022/01/03 07:13:28;;;;;;;8.23;1.20;;;5.90;96.30;;;;;;4954135;29;20186;-77
2022/01/03 07:18:56;;;;;;;2.60;1.00;;;5.80;96.30;;;;;;4954412;29;20458;-77
2022/01/03 07:21:29;;;;;;;3.87;1.17;;;5.70;96.30;;;;;;4954305;29;20427;-78
2022/01/03 07:23:55;;;;;;;3.23;0.90;;;5.80;96.30;;;;;;4953829;29;20993;-77
2022/01/03 07:26:21;;;;;;;4.53;1.10;;;5.80;96.30;;;;;;4937355;29;20831;-78
2022/01/03 07:28:47;;;;;;;2.13;0.80;;;5.80;96.30;;;;;;4936962;29;20957;-77
2022/01/03 07:31:13;;;;;;;3.93;0.80;;;5.90;96.30;;;;;;4954271;29;20447;-78
2022/01/03 07:33:38;;;;;;;8.30;1.00;;;5.80;96.30;;;;;;4953921;29;20266;-78
2022/01/03 07:36:04;;;;;;;3.33;0.83;;;5.80;96.30;;;;;;4939631;29;20187;-78
2022/01/03 07:38:29;;;;;;;9.47;1.20;;;5.80;96.30;;;;;;4934931;29;20179;-78
2022/01/03 07:40:55;;;;;;;4.20;1.17;;;5.90;96.30;;;;;;4933255;29;20290;-78
2022/01/03 07:43:20;;;;;;;5.13;0.93;;;5.90;96.30;;;;;;4933494;29;20254;-78
2022/01/03 07:45:46;;;;;;;4.30;1.20;;;5.90;96.30;;;;;;4935038;29;20211;-77
2022/01/03 07:48:12;;;;;;;3.20;0.80;;;5.90;96.30;;;;;;4934931;29;20775;-77
2022/01/03 07:50:37;;;;;;;4.03;1.00;;;6.00;96.30;;;;;;4933454;29;20203;-77
2022/01/03 07:53:04;;;;;;;1.60;0.80;;;6.00;96.30;;;;;;4933520;29;20183;-77
2022/01/03 07:55:30;;;;;;;4.80;1.23;;;5.90;96.30;;;;;;4934638;29;20235;-77
2022/01/03 07:57:57;;;;;;;5.93;1.33;;;5.90;96.30;;;;;;4934746;29;20416;-77
2022/01/03 08:00:23;;;;;;;3.03;1.03;;;5.90;96.30;;;;;;4934672;29;20506;-77
2022/01/03 08:02:48;;;;;;;4.37;0.80;;;6.00;96.30;;;;;;4933261;29;20545;-77
2022/01/03 08:05:14;;;;;;;4.63;1.00;;;6.00;96.30;;;;;;4934625;29;20635;-77
2022/01/03 08:07:42;;;;;;;4.97;1.63;;;6.10;96.30;;;;;;4934886;29;20203;-77
2022/01/03 08:10:08;;;;;;;2.70;1.10;;;6.00;96.30;;;;;;4935176;29;20411;-77
2022/01/03 08:12:35;;;;;;;6.77;1.03;;;6.00;96.30;;;;;;4934644;29;20930;-78
2022/01/03 08:15:00;;;;;;;3.83;0.80;;;6.10;96.30;;;;;;4933278;29;20419;-78
2022/01/03 08:17:26;;;;;;;8.00;2.20;;;6.20;96.30;;;;;;4934660;29;20418;-77
2022/01/03 08:19:52;;;;;;;5.33;1.30;;;6.30;96.30;;;;;;4934745;29;20263;-77
2022/01/03 08:22:18;;;;;;;7.50;1.77;;;6.50;96.30;;;;;;4935420;29;20195;-77
2022/01/03 08:24:44;;;;;;;3.23;0.90;;;6.60;96.30;;;;;;4935510;29;20423;-77
2022/01/03 08:27:10;;;;;;;2.67;0.90;;;6.70;96.30;;;;;;4936327;29;20179;-77
2022/01/03 08:29:35;;;;;;;6.73;1.00;;;6.70;96.30;;;;;;4934506;29;20814;-77
2022/01/03 08:32:01;;;;;;;5.23;0.90;;;6.70;96.30;;;;;;4934478;29;20199;-77
2022/01/03 08:34:26;;;;;;;3.47;1.00;;;6.80;96.30;;;;;;4935856;29;20255;-77
2022/01/03 08:36:52;;;;;;;3.27;1.03;;;6.90;96.30;;;;;;4953778;29;20189;-77
2022/01/03 08:39:17;;;;;;;6.23;1.40;;;6.90;96.30;;;;;;4953961;29;20186;-77
2022/01/03 08:41:43;;;;;;;3.40;1.20;;;6.90;96.30;;;;;;4953724;29;20250;-77
2022/01/03 08:44:08;;;;;;;4.23;1.00;;;7.00;96.30;;;;;;4952883;29;20659;-77
2022/01/03 08:46:34;;;;;;;7.73;1.67;;;7.00;96.30;;;;;;4953642;29;20203;-77
2022/01/03 08:49:00;;;;;;;12.10;1.10;;;7.00;96.30;;;;;;4920721;29;20215;-78
2022/01/03 08:51:26;;;;;;;6.20;1.00;;;7.00;96.30;;;;;;4934160;29;20282;-78
2022/01/03 08:53:51;;;;;;;4.70;1.30;;;7.10;96.30;;;;;;4937538;29;20182;-78
2022/01/03 08:56:17;;;;;;;4.90;1.47;;;7.00;96.30;;;;;;4920740;29;20180;-78
2022/01/03 08:58:43;;;;;;;3.83;0.90;;;7.10;96.30;;;;;;4944721;29;20509;-77
2022/01/03 09:01:09;;;;;;;1.67;0.80;;;7.10;96.30;;;;;;4939626;29;20210;-77
2022/01/03 09:03:34;;;;;;;3.07;1.03;;;7.10;96.30;;;;;;4938652;29;20215;-77
2022/01/03 09:06:00;;;;;;;8.57;1.30;;;7.10;96.30;;;;;;4938520;29;20656;-77
2022/01/03 09:08:25;;;;;;;7.77;1.00;;;7.00;96.30;;;;;;4956079;29;20178;-77
2022/01/03 09:10:51;;;;;;;7.97;0.90;;;7.00;96.30;;;;;;4955850;28;20201;-78
2022/01/03 09:13:18;;;;;;;4.03;1.40;;;7.00;96.30;;;;;;4955646;29;20311;-77
2022/01/03 09:15:48;;;;;;;6.47;1.10;;;6.90;96.30;;;;;;4955821;29;20477;-77
2022/01/03 09:18:15;;;;;;;1.77;0.70;;;7.00;96.30;;;;;;4938699;29;20572;-77
2022/01/03 09:20:40;;;;;;;7.17;2.33;;;7.00;96.30;;;;;;4956507;28;20809;-77
2022/01/03 09:23:14;;;;;;;4.80;0.97;;;6.90;96.30;;;;;;4939067;29;20462;-77
2022/01/03 09:30:50;;;;;;;4.03;0.90;;;7.10;96.30;;;;;;4956545;28;20198;-77
2022/01/03 09:33:16;;;;;;;2.90;0.80;;;7.10;96.30;;;;;;4938694;29;20418;-76
2022/01/03 09:35:42;;;;;;;3.57;1.20;;;7.10;96.30;;;;;;4956118;29;20803;-77
2022/01/03 09:38:08;;;;;;;2.33;1.03;;;7.00;96.30;;;;;;4956257;29;20549;-76
2022/01/03 09:40:34;;;;;;;7.87;1.33;;;6.90;96.30;;;;;;4956002;29;20520;-76
2022/01/03 09:43:01;;;;;;;6.27;1.33;;;7.00;96.30;;;;;;4938739;29;20490;-77
2022/01/03 09:45:32;;;;;;;1.87;0.90;;;7.10;96.30;;;;;;4955620;29;20922;-77
2022/01/03 09:47:59;;;;;;;2.40;0.97;;;7.20;96.30;;;;;;4938709;29;20414;-77
2022/01/03 09:50:25;;;;;;;6.70;1.30;;;7.40;96.30;;;;;;4938412;29;20469;-77
2022/01/03 09:52:51;;;;;;;7.83;1.23;;;7.40;96.30;;;;;;4938860;29;20410;-76
2022/01/03 09:55:19;;;;;;;5.70;1.13;;;7.60;96.30;;;;;;4938322;29;20469;-77
2022/01/03 09:57:46;;;;;;;6.53;1.00;;;7.80;96.30;;;;;;4938687;29;20186;-77
2022/01/03 10:00:18;;;;;;;3.67;1.10;;;7.80;96.30;;;;;;4955524;29;20421;-76
2022/01/03 10:02:45;;;;;;;3.33;0.90;;;7.80;96.30;;;;;;4938250;28;20517;-77
2022/01/03 10:05:11;;;;;;;3.10;0.90;;;7.90;96.30;;;;;;4955362;29;20442;-77
2022/01/03 10:07:39;;;;;;;3.00;0.77;;;8.00;96.30;;;;;;4955593;29;20446;-77
2022/01/03 10:10:06;;;;;;;5.37;1.20;;;8.00;96.30;;;;;;4955644;29;20458;-77
2022/01/03 10:12:31;;;;;;;5.23;1.00;;;7.90;96.30;;;;;;4955305;29;20466;-77
2022/01/03 10:14:58;;;;;;;4.53;1.10;;;7.80;96.30;;;;;;4955271;29;20458;-75
2022/01/03 10:17:24;;;;;;;4.80;1.40;;;7.80;96.30;;;;;;4955368;29;20261;-77
2022/01/03 10:20:02;;;;;;;6.90;1.50;;;7.80;96.30;;;;;;4955281;29;20506;-76
2022/01/03 10:22:30;;;;;;;6.30;1.53;;;7.80;96.30;;;;;;4937848;29;20215;-77
2022/01/03 10:24:59;;;;;;;2.60;0.90;;;7.80;96.30;;;;;;4954864;29;20914;-77
2022/01/03 10:27:53;;;;;;;3.33;0.90;;;7.80;96.30;;;;;;4938099;29;20418;-77
2022/01/03 10:30:40;;;;;;;5.10;1.30;;;7.70;96.30;;;;;;4955097;29;20814;-77
2022/01/03 10:33:08;;;;;;;4.00;1.27;;;7.60;96.30;;;;;;4937859;29;20426;-76
2022/01/03 10:35:48;;;;;;;2.40;1.00;;;7.70;96.30;;;;;;4944540;29;20443;-77
2022/01/03 10:38:32;;;;;;;5.83;1.13;;;7.60;96.30;;;;;;4935954;29;20536;-77
2022/01/03 10:41:12;;;;;;;7.63;1.77;;;7.70;96.30;;;;;;4918741;29;20506;-77
2022/01/03 10:43:38;;;;;;;14.93;1.20;;;7.80;96.30;;;;;;4935509;29;20451;-76
2022/01/03 10:46:18;;;;;;;4.37;1.00;;;7.80;96.30;;;;;;4935819;29;20431;-77
2022/01/03 10:48:45;;;;;;;3.10;1.60;;;8.00;96.30;;;;;;4935700;29;20237;-76
2022/01/03 10:51:10;;;;;;;3.43;0.93;;;8.10;96.30;;;;;;4935705;29;20435;-76
2022/01/03 10:53:41;;;;;;;4.27;0.83;;;9.00;96.30;;;;;;4935385;29;20470;-77
2022/01/03 10:56:31;;;;;;;3.67;1.17;;;9.60;96.30;;;;;;4935536;29;20207;-76
2022/01/03 10:59:18;;;;;;;8.13;1.07;;;9.10;96.30;;;;;;4935736;29;20427;-76
2022/01/03 11:01:46;;;;;;;2.30;0.90;;;9.00;96.30;;;;;;4935497;29;20450;-77
2022/01/03 11:04:25;;;;;;;5.03;1.23;;;9.90;96.30;;;;;;4935264;29;20577;-77
2022/01/03 11:13:12;;;;;;;2.60;0.60;;;10.20;96.30;;;;;;4954812;29;20429;-77
2022/01/03 11:15:56;;;;;;;4.57;1.30;;;10.40;96.30;;;;;;4937585;29;20872;-77
2022/01/03 11:18:24;;;;;;;3.80;1.00;;;10.50;96.30;;;;;;4937275;29;20429;-77
2022/01/03 11:36:23;;;;;;;6.40;1.37;;;8.60;96.30;;;;;;5590026;23;20513;-75
2022/01/03 11:38:50;;;;;;;4.07;1.13;;;8.60;96.30;;;;;;4954056;29;20421;-76
2022/01/03 11:41:17;;;;;;;4.30;0.80;;;8.50;96.30;;;;;;4953727;29;20433;-76
2022/01/03 11:43:44;;;;;;;3.47;1.17;;;8.40;96.30;;;;;;4953642;29;20454;-75
2022/01/03 11:46:10;;;;;;;8.50;1.87;;;8.30;96.30;;;;;;4953797;29;20466;-76
2022/01/03 11:48:36;;;;;;;4.33;1.60;;;8.30;96.30;;;;;;4953804;29;20422;-76
2022/01/03 11:51:08;;;;;;;3.03;0.80;;;8.30;96.30;;;;;;4953727;29;20441;-77
2022/01/03 11:53:41;;;;;;;9.27;2.10;;;8.20;96.30;;;;;;4953679;29;20411;-75
2022/01/03 11:56:12;;;;;;;8.97;1.00;;;8.30;96.30;;;;;;4953694;29;20421;-76
2022/01/03 11:58:59;;;;;;;7.13;0.87;;;8.20;96.30;;;;;;4953881;29;20895;-76
2022/01/03 12:04:36;;;;;;;1.80;1.03;;;8.20;96.30;;;;;;4953361;29;20540;-75
2022/01/03 12:07:06;;;;;;;6.10;1.00;;;8.30;96.30;;;;;;4953695;29;20481;-76
2022/01/03 12:09:33;;;;;;;8.10;2.17;;;8.30;96.30;;;;;;4953840;29;20498;-76
2022/01/03 12:11:58;;;;;;;4.90;1.17;;;8.40;96.30;;;;;;4953579;29;20485;-76
2022/01/03 12:14:38;;;;;;;3.23;0.90;;;8.60;96.30;;;;;;4953331;29;20415;-75
2022/01/03 12:17:06;;;;;;;7.50;1.23;;;8.70;96.30;;;;;;4936329;29;20182;-75
2022/01/03 12:19:54;;;;;;;3.57;1.33;;;8.60;96.30;;;;;;4953363;29;20446;-75
2022/01/03 12:22:22;;;;;;;5.20;1.43;;;8.50;96.30;;;;;;4935183;29;20454;-76
2022/01/03 12:25:00;;;;;;;6.23;1.17;;;8.50;96.30;;;;;;4953247;29;20403;-75
2022/01/03 12:27:28;;;;;;;3.63;1.00;;;8.40;96.30;;;;;;4937743;29;20414;-75
2022/01/03 12:29:54;;;;;;;4.83;1.20;;;8.50;96.30;;;;;;4957222;29;20415;-76
2022/01/03 12:32:40;;;;;;;2.53;0.90;;;8.60;96.30;;;;;;4957388;29;20430;-76
2022/01/03 12:35:12;;;;;;;3.93;1.43;;;8.70;96.30;;;;;;4956964;29;20274;-73
2022/01/03 12:37:39;;;;;;;2.47;0.90;;;8.70;96.30;;;;;;4939739;29;20520;-76
2022/01/03 12:40:05;;;;;;;4.80;1.00;;;8.60;96.30;;;;;;4957114;29;20410;-75
2022/01/03 12:42:51;;;;;;;6.50;1.47;;;8.70;96.30;;;;;;4956988;29;20434;-76
2022/01/03 12:45:29;;;;;;;4.73;1.30;;;8.80;96.30;;;;;;4957051;29;20639;-75
2022/01/03 12:48:10;;;;;;;4.87;1.07;;;8.70;96.30;;;;;;4939794;29;20418;-76
2022/01/03 12:50:39;;;;;;;2.80;1.00;;;8.50;96.30;;;;;;4957078;29;20426;-75
2022/01/03 12:53:06;;;;;;;4.20;0.93;;;8.30;96.30;;;;;;4956887;29;20414;-76
2022/01/03 12:55:38;;;;;;;4.00;0.93;;;8.20;96.30;;;;;;4956837;29;20920;-75
2022/01/03 12:58:16;;;;;;;6.00;1.30;;;8.00;96.30;;;;;;4940056;29;20433;-75
2022/01/03 13:00:55;;;;;;;5.80;1.03;;;7.80;96.30;;;;;;4956749;29;20942;-76
2022/01/03 13:03:22;;;;;;;13.20;1.60;;;7.80;96.30;;;;;;4956537;29;20537;-76
2022/01/03 13:06:05;;;;;;;3.90;1.30;;;7.80;96.30;;;;;;4956711;29;20541;-76
2022/01/03 13:08:56;;;;;;;6.33;1.00;;;7.70;96.30;;;;;;4956722;29;20446;-77
2022/01/03 13:11:23;;;;;;;2.80;1.07;;;7.60;96.30;;;;;;4939350;29;20431;-78
2022/01/03 13:13:54;;;;;;;3.07;1.17;;;7.60;96.30;;;;;;4956375;29;20422;-76
2022/01/03 13:16:31;;;;;;;4.03;1.20;;;7.60;96.30;;;;;;4939289;29;20989;-77
2022/01/03 13:18:57;;;;;;;4.50;0.90;;;7.60;96.30;;;;;;4956540;29;20398;-76
2022/01/03 13:21:25;;;;;;;3.77;0.93;;;7.70;96.30;;;;;;4939042;29;21013;-76
2022/01/03 13:23:54;;;;;;;7.57;1.43;;;7.80;96.30;;;;;;4956123;29;20454;-76
2022/01/03 13:26:22;;;;;;;13.20;1.80;;;7.80;96.30;;;;;;4939079;29;20423;-76
2022/01/03 13:28:52;;;;;;;7.13;1.10;;;7.80;96.30;;;;;;4956321;29;20410;-75
2022/01/03 13:31:18;;;;;;;3.73;1.07;;;7.80;96.30;;;;;;4956221;29;20426;-76
2022/01/03 13:33:44;;;;;;;4.20;1.10;;;7.80;96.30;;;;;;4955948;29;20419;-75
2022/01/03 13:36:15;;;;;;;2.53;0.90;;;7.80;96.30;;;;;;4940794;29;20442;-75
2022/01/03 13:38:41;;;;;;;4.67;1.00;;;7.80;96.30;;;;;;4936508;29;20168;-75
2022/01/03 13:41:16;;;;;;;3.90;0.90;;;7.70;96.30;;;;;;4936796;29;20919;-76
2022/01/03 13:43:49;;;;;;;6.93;1.30;;;7.70;96.30;;;;;;4919564;29;20198;-75
2022/01/03 13:49:22;;;;;;;3.20;1.00;;;7.60;96.30;;;;;;4937011;29;20967;-75
2022/01/03 13:51:54;;;;;;;3.90;1.17;;;7.50;96.30;;;;;;4936688;29;20435;-75
2022/01/03 13:54:22;;;;;;;2.83;0.80;;;7.60;96.30;;;;;;4936579;29;20415;-75
2022/01/03 13:56:48;;;;;;;4.13;0.97;;;7.60;96.30;;;;;;4936637;29;20498;-75
2022/01/03 13:59:14;;;;;;;3.97;1.03;;;7.50;96.30;;;;;;4919441;29;20865;-75
2022/01/03 14:01:40;;;;;;;2.43;0.90;;;7.50;96.30;;;;;;4936496;29;20192;-74
2022/01/03 14:04:06;;;;;;;5.40;1.00;;;7.60;96.30;;;;;;4936187;29;20549;-75
2022/01/03 14:06:32;;;;;;;3.83;1.10;;;7.50;96.30;;;;;;4936512;29;20553;-74
2022/01/03 14:08:57;;;;;;;4.20;1.40;;;7.50;96.30;;;;;;4936480;29;20420;-74
2022/01/03 14:11:26;;;;;;;7.03;1.23;;;7.50;96.30;;;;;;4936314;29;20202;-76
2022/01/03 14:13:52;;;;;;;3.43;1.27;;;7.50;96.30;;;;;;4919101;29;20186;-75
2022/01/03 14:16:19;;;;;;;7.33;1.37;;;7.40;96.30;;;;;;4936280;29;20411;-75
2022/01/03 14:18:49;;;;;;;4.10;1.20;;;7.40;96.30;;;;;;4936189;29;20636;-75
2022/01/03 14:21:33;;;;;;;3.57;1.00;;;7.30;96.30;;;;;;4936220;29;20487;-76
2022/01/03 14:24:05;;;;;;;5.73;1.70;;;7.30;96.30;;;;;;4935839;29;20470;-75
2022/01/03 14:26:32;;;;;;;6.93;1.00;;;7.20;96.30;;;;;;4935918;29;20439;-74
2022/01/03 14:29:11;;;;;;;5.23;1.20;;;7.20;96.30;;;;;;4936035;29;20422;-74
2022/01/03 14:31:57;;;;;;;3.53;1.00;;;7.10;96.30;;;;;;4935972;29;20943;-75
2022/01/03 14:34:27;;;;;;;7.93;1.50;;;7.10;96.30;;;;;;4936589;29;20443;-75
2022/01/03 14:36:54;;;;;;;2.53;1.00;;;7.10;96.30;;;;;;4954764;29;20460;-75
2022/01/03 14:39:21;;;;;;;11.50;1.63;;;7.10;96.30;;;;;;4954695;29;20750;-74
2022/01/03 14:42:04;;;;;;;4.30;1.00;;;7.10;96.30;;;;;;4954637;29;20430;-76
2022/01/03 14:44:33;;;;;;;6.20;1.20;;;7.20;96.30;;;;;;4943143;29;20486;-74
2022/01/03 14:47:08;;;;;;;4.33;1.30;;;7.20;96.30;;;;;;4935782;29;20420;-75
2022/01/03 14:49:35;;;;;;;7.27;1.10;;;7.20;96.30;;;;;;4936238;28;20435;-74
2022/01/03 14:52:00;;;;;;;7.57;1.73;;;7.20;96.30;;;;;;4953455;29;20545;-75
2022/01/03 14:54:31;;;;;;;3.80;1.23;;;7.20;96.30;;;;;;4954213;29;20853;-76
2022/01/03 14:57:13;;;;;;;7.13;1.10;;;7.20;96.30;;;;;;4941432;29;20255;-75
2022/01/03 14:59:38;;;;;;;3.87;1.23;;;7.20;96.30;;;;;;4936157;29;20948;-75
2022/01/03 15:02:04;;;;;;;7.17;1.50;;;7.10;96.30;;;;;;4918384;29;20463;-75
2022/01/03 15:04:29;;;;;;;5.73;2.10;;;7.10;96.30;;;;;;4918117;29;20234;-75
2022/01/03 15:06:55;;;;;;;6.43;1.77;;;7.10;96.30;;;;;;4918541;29;20707;-76
2022/01/03 15:09:22;;;;;;;3.77;0.90;;;7.10;96.30;;;;;;4918403;29;20203;-76
2022/01/03 15:11:48;;;;;;;7.20;1.70;;;7.10;96.30;;;;;;4918375;29;20569;-76
2022/01/03 15:14:14;;;;;;;9.20;1.43;;;7.10;96.30;;;;;;4940879;29;20761;-76
2022/01/03 15:16:40;;;;;;;6.20;1.53;;;7.00;96.30;;;;;;4946497;29;20442;-76
2022/01/03 15:19:05;;;;;;;6.40;1.60;;;7.00;96.30;;;;;;4943377;29;20179;-76
2022/01/03 15:21:31;;;;;;;4.93;1.23;;;7.00;96.30;;;;;;4944576;29;20203;-76
2022/01/03 15:23:57;;;;;;;4.87;1.40;;;7.00;96.30;;;;;;4954058;29;20199;-75
2022/01/03 15:26:24;;;;;;;6.47;2.30;;;7.00;96.30;;;;;;4954390;29;20433;-75
2022/01/03 15:28:50;;;;;;;5.37;1.20;;;7.00;96.30;;;;;;4954283;29;20163;-76
2022/01/03 15:31:16;;;;;;;3.90;1.30;;;7.00;96.30;;;;;;4954505;29;20442;-76
2022/01/03 15:33:41;;;;;;;8.00;1.43;;;7.00;96.30;;;;;;4954052;29;20414;-76
2022/01/03 15:36:07;;;;;;;5.37;1.70;;;7.00;96.30;;;;;;4939331;29;20199;-76
2022/01/03 15:38:32;;;;;;;6.30;1.53;;;7.00;96.30;;;;;;4935006;29;20654;-76
2022/01/03 15:40:58;;;;;;;8.07;1.40;;;7.10;96.30;;;;;;4918152;29;20199;-77
2022/01/03 15:43:26;;;;;;;3.90;1.43;;;7.20;96.30;;;;;;4934810;29;20206;-77
2022/01/03 15:45:55;;;;;;;6.80;1.60;;;7.20;96.30;;;;;;4935202;29;20420;-76
2022/01/03 15:48:21;;;;;;;4.00;1.27;;;7.10;96.30;;;;;;4935074;29;20419;-76
2022/01/03 15:50:46;;;;;;;3.10;1.30;;;7.10;96.30;;;;;;4935118;29;20439;-76
2022/01/03 15:53:12;;;;;;;7.03;1.47;;;7.10;96.30;;;;;;4935232;29;20775;-77
2022/01/03 15:55:39;;;;;;;5.37;2.10;;;7.00;96.30;;;;;;4934920;29;20632;-76
2022/01/03 15:58:05;;;;;;;4.63;1.80;;;7.00;96.30;;;;;;4950052;29;20753;-77
2022/01/03 16:00:31;;;;;;;5.17;2.30;;;7.00;96.30;;;;;;4954318;28;20399;-77
2022/01/03 16:02:57;;;;;;;5.93;2.70;;;7.00;96.30;;;;;;4957955;29;20549;-76
2022/01/03 16:05:23;;;;;;;6.73;2.93;;;7.00;96.30;;;;;;4957987;29;20175;-77
2022/01/03 16:07:49;;;;;;;7.00;1.70;;;7.00;96.30;;;;;;4957859;29;21014;-77
2022/01/03 16:10:14;;;;;;;2.20;1.20;;;7.10;96.30;;;;;;4955835;29;20430;-76
2022/01/03 16:12:42;;;;;;;2.77;1.10;;;7.00;96.30;;;;;;4938654;29;20179;-76
2022/01/03 16:15:08;;;;;;;8.33;1.90;;;7.00;96.30;;;;;;4938797;29;20187;-77
2022/01/03 16:17:34;;;;;;;8.10;1.60;;;6.90;96.30;;;;;;4921696;29;20426;-76
2022/01/03 16:20:00;;;;;;;3.93;1.37;;;6.90;96.30;;;;;;4950799;29;20418;-77
2022/01/03 16:22:26;;;;;;;5.97;2.07;;;7.00;96.30;;;;;;4957860;29;20234;-76
2022/01/03 16:24:51;;;;;;;7.53;1.60;;;7.00;96.30;;;;;;4943151;29;20857;-77
2022/01/03 16:27:17;;;;;;;3.70;1.50;;;7.00;96.30;;;;;;4921952;29;20184;-77
2022/01/03 16:29:43;;;;;;;6.23;1.47;;;7.00;96.30;;;;;;4946885;29;20862;-77
2022/01/03 16:32:08;;;;;;;6.77;1.33;;;7.00;96.30;;;;;;4950909;29;20589;-78
2022/01/03 16:34:35;;;;;;;7.73;3.07;;;7.10;96.30;;;;;;4936396;29;20183;-76
2022/01/03 16:37:01;;;;;;;4.33;1.33;;;7.10;96.30;;;;;;4933674;29;20612;-77
2022/01/03 16:39:28;;;;;;;2.60;0.93;;;7.20;96.30;;;;;;4932892;29;20435;-77
2022/01/03 16:41:54;;;;;;;2.57;1.13;;;7.10;96.30;;;;;;4930734;29;21049;-77
2022/01/03 16:44:20;;;;;;;2.63;1.00;;;7.10;96.30;;;;;;4950180;29;20467;-77
2022/01/03 16:46:46;;;;;;;1.43;0.80;;;7.10;96.30;;;;;;4954141;29;20182;-77
2022/01/03 16:49:11;;;;;;;4.40;1.23;;;7.00;96.30;;;;;;4954929;29;20178;-77
2022/01/03 16:51:38;;;;;;;6.07;1.00;;;7.00;96.30;;;;;;4950742;29;20953;-78
2022/01/03 16:54:04;;;;;;;2.90;0.90;;;7.00;96.30;;;;;;4937205;29;20175;-78
2022/01/03 16:56:30;;;;;;;2.63;1.00;;;7.00;96.30;;;;;;4955806;28;20426;-77
2022/01/03 16:58:56;;;;;;;11.83;1.43;;;7.00;96.30;;;;;;4952592;29;20945;-76
2022/01/03 17:01:21;;;;;;;3.53;0.90;;;6.90;96.30;;;;;;4954402;29;20674;-76
2022/01/03 17:03:47;;;;;;;4.03;1.00;;;6.90;96.30;;;;;;4951994;29;20246;-76
2022/01/03 17:06:12;;;;;;;1.73;0.80;;;6.90;96.30;;;;;;4952346;29;20175;-75
2022/01/03 17:08:38;;;;;;;4.10;0.90;;;6.90;96.30;;;;;;4947146;29;20183;-75
2022/01/03 17:11:03;;;;;;;1.50;0.70;;;6.90;96.30;;;;;;4952013;29;20199;-76
2022/01/03 17:13:29;;;;;;;3.00;0.90;;;6.90;96.30;;;;;;4945988;29;20195;-76
2022/01/03 17:15:55;;;;;;;4.63;0.80;;;6.90;96.30;;;;;;4953164;29;20182;-76
2022/01/03 17:18:20;;;;;;;4.00;1.10;;;6.80;96.30;;;;;;4954487;28;20197;-76
2022/01/03 17:20:46;;;;;;;7.30;1.00;;;6.90;96.30;;;;;;4953099;29;20679;-77
2022/01/03 17:23:12;;;;;;;2.90;0.90;;;6.90;96.30;;;;;;4955525;29;20214;-78
2022/01/03 17:25:41;;;;;;;3.23;0.90;;;6.90;96.30;;;;;;4939103;29;20197;-77
2022/01/03 17:28:09;;;;;;;1.47;0.73;;;6.80;96.30;;;;;;4948107;29;20828;-77
2022/01/03 17:30:35;;;;;;;2.87;1.50;;;6.80;96.30;;;;;;4933591;29;20530;-77
2022/01/03 17:33:01;;;;;;;4.70;1.30;;;6.80;96.30;;;;;;4948328;28;20489;-77
2022/01/03 17:35:26;;;;;;;3.60;1.10;;;6.80;96.30;;;;;;4929043;29;20932;-77
2022/01/03 17:37:53;;;;;;;3.20;1.40;;;6.80;96.30;;;;;;4950014;29;20663;-77
2022/01/03 17:40:19;;;;;;;2.70;0.97;;;6.80;96.30;;;;;;4952390;29;20179;-76
2022/01/03 17:42:44;;;;;;;6.73;2.20;;;6.70;96.30;;;;;;4957026;29;20499;-77
2022/01/03 17:45:10;;;;;;;3.30;1.00;;;6.70;96.30;;;;;;4966082;28;20419;-76
2022/01/03 17:47:36;;;;;;;4.40;1.47;;;6.70;96.30;;;;;;4952486;29;20262;-77